Main page
METAR-TAF:

METAR-TAF

Airports :

Teniente R. Marsh Airport

Base Presidente Eduardo Frei Montalva, Chile

latitude: 62-11-28S, longitude: 58-59-11W, elevation: 45 m

Current weather observation

The report was made 1 hour and 3 minutes ago, at 12:00 UTC
Wind 19 kt from the West
Temperature -2°C
Humidity 100%
Pressure 997 hPa
Visibility: 4000 m
Scattered clouds at a height of 500 ft
Overcast at a height of 1000 ft

METAR: SCRM 281200Z 27019KT 4000 SCT005 OVC010 M02/M02 Q0997 NOSIG

Time: 09:03 (13:03 UTC)


TAF: missing

Weather observations and forecasts of more than 4000 airports (METAR and TAF reports).

The available stations are represented by yellow and red dots on the map.

Hover mouse over dot to see the name of the station.

Then click to see weather observations and forecasts.

To change the map : click on the green buttons with a black cross to zoom in, on the green button with a dash to zoom out, or on the green arrows for adjacent maps.


METAR-TAF: